createdAt,value
2022-12-08T00:04:16.928Z,98792.22
2022-12-08T00:09:42.014Z,98794.33
2022-12-08T00:14:47.678Z,98801.40
2022-12-08T00:19:50.707Z,98799.92
2022-12-08T00:24:53.697Z,98803.09
2022-12-08T00:29:56.682Z,98812.03
2022-12-08T00:34:59.678Z,98815.52
2022-12-08T00:40:03.004Z,98823.16
2022-12-08T00:45:07.078Z,98833.13
2022-12-08T00:50:10.829Z,98841.77
2022-12-08T00:55:16.881Z,98838.34
2022-12-08T01:00:20.474Z,98837.23
2022-12-08T01:05:26.427Z,98839.21
2022-12-08T01:10:29.492Z,98838.45
2022-12-08T01:15:34.438Z,98835.17
2022-12-08T01:20:37.438Z,98840.64
2022-12-08T01:25:40.704Z,98842.79
2022-12-08T01:30:43.774Z,98838.21
2022-12-08T01:35:46.773Z,98845.35
2022-12-08T01:40:49.831Z,98847.92
2022-12-08T01:45:52.873Z,98849.27
2022-12-08T01:50:56.193Z,98861.11
2022-12-08T01:56:19.468Z,98861.33
2022-12-08T02:01:22.634Z,98858.23
2022-12-08T02:06:28.831Z,98860.72
2022-12-08T02:11:31.845Z,98865.85
2022-12-08T02:17:12.193Z,98865.54
2022-12-08T02:22:25.324Z,98862.73
2022-12-08T02:28:00.203Z,98866.94
2022-12-08T02:33:27.816Z,98860.19
2022-12-08T02:38:45.598Z,98862.09
2022-12-08T02:44:01.663Z,98860.64
2022-12-08T02:49:05.277Z,98866.66
2022-12-08T02:54:08.578Z,98873.94
2022-12-08T03:00:02.933Z,98881.84
2022-12-08T03:05:43.379Z,98886.67
2022-12-08T03:11:24.776Z,98879.02
2022-12-08T03:16:34.280Z,98877.20
2022-12-08T03:21:38.015Z,98882.31
2022-12-08T03:26:51.923Z,98893.69
2022-12-08T03:31:59.279Z,98895.34
2022-12-08T03:37:02.661Z,98895.41
2022-12-08T03:42:05.757Z,98905.64
2022-12-08T03:47:08.753Z,98909.50
2022-12-08T03:52:12.391Z,98907.81
2022-12-08T03:57:15.378Z,98913.43
2022-12-08T04:02:18.427Z,98917.40
2022-12-08T04:07:25.022Z,98918.84
2022-12-08T04:12:28.020Z,98917.59
2022-12-08T04:17:30.996Z,98921.80
2022-12-08T04:22:33.982Z,98924.06
2022-12-08T04:27:37.166Z,98928.40
2022-12-08T04:32:45.747Z,98917.06
2022-12-08T04:37:53.414Z,98911.02
2022-12-08T04:42:58.953Z,98910.77
2022-12-08T04:48:02.349Z,98906.92
2022-12-08T04:53:05.330Z,98908.08
2022-12-08T04:58:11.396Z,98914.70
2022-12-08T05:03:15.291Z,98915.98
2022-12-08T05:08:18.207Z,98910.58
2022-12-08T05:13:21.229Z,98911.91
2022-12-08T05:18:24.248Z,98916.65
2022-12-08T05:23:27.590Z,98916.59
2022-12-08T05:28:46.086Z,98919.79
2022-12-08T05:33:51.150Z,98921.03
2022-12-08T05:38:57.826Z,98926.66
2022-12-08T05:44:03.303Z,98927.33
2022-12-08T05:49:06.407Z,98933.34
2022-12-08T05:54:09.442Z,98926.77
2022-12-08T05:59:14.628Z,98932.44
2022-12-08T06:04:17.635Z,98930.11
2022-12-08T06:09:22.789Z,98929.77
2022-12-08T06:14:25.800Z,98935.17
2022-12-08T06:19:28.863Z,98938.19
2022-12-08T06:24:32.038Z,98936.69
2022-12-08T06:29:35.048Z,98939.97
2022-12-08T06:34:38.221Z,98953.64
2022-12-08T06:39:43.637Z,98966.44
2022-12-08T06:44:47.272Z,98968.05
2022-12-08T06:49:53.006Z,98966.91
2022-12-08T06:54:56.011Z,98974.40
2022-12-08T06:59:59.018Z,98978.06
2022-12-08T07:05:04.304Z,98981.42
2022-12-08T07:10:08.576Z,98981.44
2022-12-08T07:15:11.887Z,98981.60
2022-12-08T07:20:18.636Z,98984.20
2022-12-08T07:25:21.976Z,98982.90
2022-12-08T07:30:25.082Z,98987.23
2022-12-08T07:35:28.261Z,98992.14
2022-12-08T07:40:31.224Z,98999.96
2022-12-08T07:45:34.220Z,99003.67
2022-12-08T07:50:37.305Z,99009.11
2022-12-08T07:55:44.872Z,99012.10
2022-12-08T08:00:47.966Z,99015.19
2022-12-08T08:05:50.995Z,99015.81
2022-12-08T08:10:56.462Z,99012.39
2022-12-08T08:16:07.861Z,99007.60
2022-12-08T08:21:43.637Z,99007.35
2022-12-08T08:26:37.737Z,99009.05
2022-12-08T08:31:42.987Z,99015.55
2022-12-08T08:36:46.102Z,99022.29
2022-12-08T08:41:49.145Z,99023.13
2022-12-08T08:46:52.186Z,99022.75
2022-12-08T08:51:58.208Z,99022.98
2022-12-08T08:57:01.702Z,99021.77
2022-12-08T09:02:07.736Z,99021.80
2022-12-08T09:07:11.724Z,99019.00
2022-12-08T09:12:14.869Z,99010.84
2022-12-08T09:17:17.859Z,99006.19
2022-12-08T09:22:20.871Z,99010.61
2022-12-08T09:27:24.608Z,99011.70
2022-12-08T09:32:30.754Z,99004.35
2022-12-08T09:37:33.793Z,99003.95
2022-12-08T09:43:07.431Z,99000.10
2022-12-08T09:48:17.637Z,99005.20
2022-12-08T09:53:36.335Z,99002.84
2022-12-08T09:58:57.718Z,98997.52
2022-12-08T10:04:01.914Z,98990.70
2022-12-08T10:09:36.038Z,98988.35
2022-12-08T10:15:12.159Z,98990.81
2022-12-08T10:20:38.215Z,98989.14
2022-12-08T10:26:00.537Z,98981.37
2022-12-08T10:31:04.160Z,98975.08
2022-12-08T10:36:07.504Z,98971.23
2022-12-08T10:41:19.792Z,98968.30
2022-12-08T10:46:28.545Z,98965.70
2022-12-08T10:51:34.699Z,98960.79
2022-12-08T10:56:37.778Z,98956.13
2022-12-08T11:01:42.627Z,98952.78
2022-12-08T11:06:46.971Z,98954.71
2022-12-08T11:11:58.351Z,98949.93
2022-12-08T11:17:27.765Z,98937.52
2022-12-08T11:22:39.946Z,98932.25
2022-12-08T11:27:47.362Z,98932.89
2022-12-08T11:33:14.667Z,98930.73
2022-12-08T11:38:22.785Z,98927.95
2022-12-08T11:43:35.695Z,98927.25
2022-12-08T11:48:57.360Z,98928.44
2022-12-08T11:54:09.138Z,98921.91
2022-12-08T11:59:34.764Z,98919.64
2022-12-08T12:04:47.656Z,98917.21
2022-12-08T12:10:09.523Z,98906.93
2022-12-08T12:15:37.261Z,98903.63
2022-12-08T12:20:53.869Z,98902.71
2022-12-08T12:26:01.377Z,98896.64
2022-12-08T12:31:12.744Z,98890.83
2022-12-08T12:36:16.486Z,98894.08
2022-12-08T12:41:31.557Z,98890.90
2022-12-08T12:46:50.615Z,98889.70
2022-12-08T12:51:56.720Z,98891.55
2022-12-08T12:57:05.766Z,98883.67
2022-12-08T13:02:48.800Z,98876.91
2022-12-08T13:08:16.522Z,98875.33
2022-12-08T13:13:20.127Z,98869.61
2022-12-08T13:18:56.400Z,98868.38
2022-12-08T13:24:14.160Z,98868.54
2022-12-08T13:29:26.780Z,98870.01
2022-12-08T13:34:42.131Z,98870.70
2022-12-08T13:39:57.400Z,98867.67
2022-12-08T13:45:33.443Z,98866.17
2022-12-08T13:52:41.540Z,98868.14
2022-12-08T14:01:45.961Z,98876.34
2022-12-08T14:06:58.299Z,98877.14
2022-12-08T14:12:26.817Z,98879.30
2022-12-08T14:17:29.801Z,98884.81
2022-12-08T14:22:36.064Z,98887.25
2022-12-08T14:27:39.473Z,98885.92
2022-12-08T14:32:51.631Z,98885.00
2022-12-08T14:38:16.731Z,98879.91
2022-12-08T14:43:21.000Z,98884.73
2022-12-08T14:48:38.946Z,98885.35
2022-12-08T14:53:47.605Z,98882.45
2022-12-08T14:59:07.656Z,98883.14
2022-12-08T15:04:19.221Z,98888.83
2022-12-08T15:09:32.455Z,98888.73
2022-12-08T15:14:38.717Z,98890.30
2022-12-08T15:19:41.826Z,98889.16
2022-12-08T15:24:44.852Z,98888.55
2022-12-08T15:29:48.890Z,98887.91
2022-12-08T15:34:51.866Z,98880.98
2022-12-08T15:39:54.927Z,98885.92
2022-12-08T15:44:58.018Z,98885.25
2022-12-08T15:50:01.076Z,98889.30
2022-12-08T15:55:04.370Z,98888.15
2022-12-08T16:00:51.164Z,98884.41
2022-12-08T16:06:10.261Z,98882.85
2022-12-08T16:12:05.238Z,98879.83
2022-12-08T16:16:54.325Z,98879.95
2022-12-08T16:32:55.058Z,98875.08
2022-12-08T16:37:58.289Z,98876.30
2022-12-08T16:43:01.288Z,98880.70
2022-12-08T16:48:07.427Z,98880.20
2022-12-08T16:53:12.427Z,98882.89
2022-12-08T16:58:20.745Z,98880.23
2022-12-08T17:03:23.849Z,98880.86
2022-12-08T17:08:27.242Z,98882.56
2022-12-08T17:13:30.231Z,98879.02
2022-12-08T17:18:36.235Z,98883.15
2022-12-08T17:23:40.764Z,98883.11
2022-12-08T17:29:00.019Z,98888.48
2022-12-08T17:34:09.626Z,98893.11
2022-12-08T17:39:18.443Z,98889.42
2022-12-08T17:44:22.120Z,98894.20
2022-12-08T17:49:29.623Z,98898.17
2022-12-08T17:54:33.114Z,98890.30
2022-12-08T17:59:36.089Z,98895.55
2022-12-08T18:04:41.971Z,98891.33
2022-12-08T18:09:44.908Z,98884.50
2022-12-08T18:14:48.426Z,98880.91
2022-12-08T18:19:51.665Z,98880.59
2022-12-08T18:24:54.709Z,98882.32
2022-12-08T18:29:57.788Z,98876.48
2022-12-08T18:35:01.672Z,98872.45
2022-12-08T18:40:05.928Z,98870.62
2022-12-08T18:45:10.376Z,98871.20
2022-12-08T18:50:16.300Z,98868.01
2022-12-08T18:55:19.555Z,98867.46
2022-12-08T19:00:22.869Z,98863.41
2022-12-08T19:05:26.839Z,98866.93
2022-12-08T19:10:32.222Z,98863.06
2022-12-08T19:15:38.090Z,98866.51
2022-12-08T19:20:41.136Z,98871.52
2022-12-08T19:25:44.119Z,98872.80
2022-12-08T19:30:47.245Z,98865.05
2022-12-08T19:35:53.465Z,98863.15
2022-12-08T19:41:15.181Z,98864.84
2022-12-08T19:46:19.328Z,98864.52
2022-12-08T19:51:22.400Z,98860.95
2022-12-08T19:56:25.358Z,98863.52
2022-12-08T20:01:31.038Z,98859.35
2022-12-08T20:06:34.110Z,98858.77
2022-12-08T20:11:38.648Z,98854.36
2022-12-08T20:16:41.913Z,98850.75
2022-12-08T20:21:45.012Z,98854.03
2022-12-08T20:26:48.005Z,98850.59
2022-12-08T20:31:51.148Z,98848.89
2022-12-08T20:36:54.202Z,98849.46
2022-12-08T20:41:57.339Z,98846.41
2022-12-08T20:47:00.386Z,98846.85
2022-12-08T20:52:03.850Z,98844.61
2022-12-08T20:57:06.949Z,98841.52
2022-12-08T21:02:14.184Z,98837.11
2022-12-08T21:07:17.823Z,98833.06
2022-12-08T21:12:20.996Z,98834.08
2022-12-08T21:17:24.209Z,98838.23
2022-12-08T21:22:27.472Z,98836.20
2022-12-08T21:27:32.650Z,98831.48
2022-12-08T21:32:38.258Z,98828.14
2022-12-08T21:37:41.357Z,98831.35
2022-12-08T21:42:44.447Z,98835.68
2022-12-08T21:47:49.301Z,98830.73
2022-12-08T21:52:52.613Z,98833.25
2022-12-08T21:57:57.290Z,98833.65
2022-12-08T22:03:00.499Z,98831.80
2022-12-08T22:08:03.786Z,98827.15
2022-12-08T22:13:06.902Z,98825.06
2022-12-08T22:18:11.507Z,98820.41
2022-12-08T22:23:14.957Z,98824.67
2022-12-08T22:28:18.205Z,98820.74
2022-12-08T22:33:24.399Z,98816.39
2022-12-08T22:38:27.648Z,98820.08
2022-12-08T22:43:31.496Z,98821.61
2022-12-08T22:48:34.945Z,98819.64
2022-12-08T22:53:38.159Z,98821.61
2022-12-08T22:58:45.532Z,98820.19
2022-12-08T23:03:48.738Z,98818.80
2022-12-08T23:08:52.552Z,98813.89
2022-12-08T23:13:58.022Z,98808.34
2022-12-08T23:19:01.099Z,98807.52
2022-12-08T23:24:04.713Z,98809.52
2022-12-08T23:34:28.644Z,98802.51
2022-12-08T23:39:32.039Z,98800.63
2022-12-08T23:44:40.784Z,98804.33
2022-12-08T23:49:43.814Z,98805.48
2022-12-08T23:54:47.413Z,98810.15
2022-12-08T23:59:50.521Z,98808.48
